createdAt,value
2018-12-16T00:00:28.551Z,15.73
2018-12-16T00:03:03.241Z,18.70
2018-12-16T00:05:34.703Z,19.50
2018-12-16T00:08:06.587Z,17.07
2018-12-16T00:10:37.531Z,18.87
2018-12-16T00:13:08.439Z,19.03
2018-12-16T00:15:39.502Z,19.47
2018-12-16T00:18:10.963Z,16.67
2018-12-16T00:20:42.475Z,17.93
2018-12-16T00:23:13.639Z,16.87
2018-12-16T00:25:48.300Z,17.57
2018-12-16T00:28:21.868Z,16.87
2018-12-16T00:30:53.258Z,17.80
2018-12-16T00:33:24.563Z,17.63
2018-12-16T00:35:55.662Z,17.77
2018-12-16T00:38:27.058Z,18.43
2018-12-16T00:40:58.795Z,20.27
2018-12-16T00:43:29.762Z,16.77
2018-12-16T00:46:00.751Z,15.07
2018-12-16T00:48:31.739Z,16.97
2018-12-16T00:51:05.411Z,17.20
2018-12-16T00:53:35.021Z,17.57
2018-12-16T01:01:08.887Z,14.83
2018-12-16T01:03:40.810Z,17.50
2018-12-16T01:06:11.807Z,15.70
2018-12-16T01:08:43.131Z,18.73
2018-12-16T01:11:14.583Z,17.20
2018-12-16T01:13:45.790Z,17.60
2018-12-16T01:16:17.870Z,17.63
2018-12-16T01:18:53.115Z,15.63
2018-12-16T01:21:24.738Z,16.07
2018-12-16T01:23:58.254Z,18.40
2018-12-16T01:26:29.594Z,16.20
2018-12-16T01:29:06.202Z,19.03
2018-12-16T01:31:37.671Z,18.37
2018-12-16T01:34:08.719Z,19.43
2018-12-16T01:36:39.828Z,17.03
2018-12-16T01:39:10.723Z,21.67
2018-12-16T01:41:44.437Z,18.47
2018-12-16T01:44:15.883Z,20.77
2018-12-16T01:46:46.783Z,18.77
2018-12-16T01:49:17.699Z,18.50
2018-12-16T01:51:48.852Z,18.23
2018-12-16T01:54:20.038Z,20.23
2018-12-16T01:56:51.239Z,20.00
2018-12-16T01:59:25.023Z,17.23
2018-12-16T02:01:56.140Z,19.87
2018-12-16T02:04:27.148Z,21.53
2018-12-16T02:06:58.211Z,21.83
2018-12-16T02:09:29.003Z,23.67
2018-12-16T02:12:00.036Z,19.23
2018-12-16T02:14:33.662Z,20.43
2018-12-16T02:17:05.295Z,23.80
2018-12-16T02:19:36.263Z,19.90
2018-12-16T02:22:07.140Z,20.77
2018-12-16T02:24:38.226Z,18.80
2018-12-16T02:27:09.057Z,21.63
2018-12-16T02:29:40.907Z,23.33
2018-12-16T02:32:14.643Z,22.77
2018-12-16T02:34:48.610Z,20.13
2018-12-16T02:37:19.715Z,20.67
2018-12-16T02:39:50.656Z,21.37
2018-12-16T02:42:22.163Z,20.83
2018-12-16T02:44:53.474Z,18.87
2018-12-16T02:47:24.348Z,21.70
2018-12-16T02:49:55.577Z,18.27
2018-12-16T02:52:26.658Z,21.13
2018-12-16T02:55:00.339Z,17.60
2018-12-16T02:57:31.825Z,18.77
2018-12-16T03:00:04.136Z,22.77
2018-12-16T03:02:37.817Z,21.73
2018-12-16T03:05:07.533Z,22.77
2018-12-16T03:07:38.404Z,23.23
2018-12-16T03:10:09.548Z,18.93
2018-12-16T03:12:41.243Z,22.33
2018-12-16T03:15:12.474Z,20.90
2018-12-16T03:17:43.427Z,21.70
2018-12-16T03:20:14.444Z,21.80
2018-12-16T03:22:45.439Z,21.60
2018-12-16T03:25:16.492Z,23.47
2018-12-16T03:27:47.503Z,21.57
2018-12-16T03:30:18.556Z,22.20
2018-12-16T03:32:49.375Z,19.57
2018-12-16T03:35:22.931Z,22.10
2018-12-16T03:37:57.010Z,20.97
2018-12-16T03:40:26.335Z,19.50
2018-12-16T03:42:57.455Z,18.37
2018-12-16T03:45:30.940Z,19.80
2018-12-16T03:48:02.555Z,20.47
2018-12-16T03:50:33.403Z,21.57
2018-12-16T03:53:06.826Z,20.97
2018-12-16T03:55:43.029Z,21.67
2018-12-16T03:58:14.339Z,21.63
2018-12-16T04:00:48.100Z,21.93
2018-12-16T04:05:50.044Z,21.97
2018-12-16T04:08:21.242Z,22.53
2018-12-16T04:10:52.063Z,20.63
2018-12-16T04:13:23.820Z,20.17
2018-12-16T04:15:57.792Z,24.73
2018-12-16T04:18:28.747Z,23.50
2018-12-16T04:21:02.422Z,21.70
2018-12-16T04:23:33.844Z,23.43
2018-12-16T04:26:04.799Z,22.77
2018-12-16T04:28:36.221Z,27.93
2018-12-16T04:31:07.971Z,19.70
2018-12-16T04:33:38.997Z,22.53
2018-12-16T04:36:09.849Z,22.10
2018-12-16T04:38:41.178Z,22.17
2018-12-16T04:41:14.613Z,23.00
2018-12-16T04:43:46.178Z,24.30
2018-12-16T04:46:17.802Z,21.90
2018-12-16T04:48:49.180Z,23.97
2018-12-16T04:51:20.180Z,22.27
2018-12-16T04:53:53.979Z,22.03
2018-12-16T04:56:23.518Z,23.03
2018-12-16T04:58:54.588Z,23.83
2018-12-16T05:01:25.348Z,21.70
2018-12-16T05:03:57.459Z,19.73
2018-12-16T05:06:28.554Z,24.57
2018-12-16T05:09:03.797Z,23.53
2018-12-16T05:11:36.797Z,20.90
2018-12-16T05:14:06.475Z,23.53
2018-12-16T05:16:38.359Z,22.90
2018-12-16T05:19:09.684Z,23.13
2018-12-16T05:21:40.617Z,23.73
2018-12-16T05:24:11.867Z,23.07
2018-12-16T05:26:42.556Z,22.67
2018-12-16T05:29:13.470Z,23.00
2018-12-16T05:31:44.748Z,25.53
2018-12-16T05:34:16.549Z,25.13
2018-12-16T05:36:50.063Z,25.47
2018-12-16T05:39:21.518Z,28.77
2018-12-16T05:41:53.299Z,28.97
2018-12-16T05:44:24.275Z,27.67
2018-12-16T05:47:02.001Z,27.83
2018-12-16T05:49:33.435Z,23.67
2018-12-16T05:52:04.475Z,31.37
2018-12-16T05:54:35.538Z,26.37
2018-12-16T05:57:09.119Z,26.63
2018-12-16T05:59:40.567Z,32.73
2018-12-16T06:02:11.699Z,27.50
2018-12-16T06:04:44.972Z,28.30
2018-12-16T06:07:16.466Z,30.70
2018-12-16T06:09:47.611Z,32.53
2018-12-16T06:12:18.821Z,30.77
2018-12-16T06:14:50.500Z,31.37
2018-12-16T06:17:22.184Z,49.97
2018-12-16T06:19:53.087Z,25.93
2018-12-16T06:22:26.201Z,25.10
2018-12-16T06:24:57.947Z,27.87
2018-12-16T06:27:29.191Z,29.33
2018-12-16T06:30:00.453Z,31.03
2018-12-16T06:32:31.589Z,28.90
2018-12-16T06:35:02.857Z,26.57
2018-12-16T06:37:33.839Z,29.80
2018-12-16T06:40:05.232Z,32.03
2018-12-16T06:42:36.567Z,28.47
2018-12-16T06:45:07.943Z,26.00
2018-12-16T06:47:39.472Z,28.67
2018-12-16T06:50:10.434Z,29.20
2018-12-16T06:52:41.347Z,26.77
2018-12-16T06:55:15.060Z,34.17
2018-12-16T06:57:46.696Z,27.50
2018-12-16T07:00:18.334Z,32.00
2018-12-16T07:02:53.136Z,27.80
2018-12-16T07:05:24.339Z,33.23
2018-12-16T07:07:57.907Z,32.27
2018-12-16T07:10:29.431Z,30.97
2018-12-16T07:13:08.743Z,31.57
2018-12-16T07:15:40.155Z,35.07
2018-12-16T07:18:11.253Z,33.27
2018-12-16T07:20:42.106Z,29.40
2018-12-16T07:23:13.412Z,33.27
2018-12-16T07:25:44.986Z,35.30
2018-12-16T07:28:18.373Z,33.87
2018-12-16T07:30:49.599Z,32.07
2018-12-16T07:33:20.802Z,35.93
2018-12-16T07:35:52.492Z,32.33
2018-12-16T07:38:23.485Z,35.53
2018-12-16T07:40:54.527Z,37.23
2018-12-16T07:43:25.453Z,38.60
2018-12-16T07:45:56.399Z,33.87
2018-12-16T07:48:31.289Z,33.67
2018-12-16T07:51:05.019Z,33.63
2018-12-16T07:53:34.298Z,39.07
2018-12-16T07:56:05.638Z,35.50
2018-12-16T07:58:36.689Z,37.47
2018-12-16T08:01:07.587Z,30.97
2018-12-16T08:03:38.571Z,35.93
2018-12-16T08:06:08.023Z,32.47
2018-12-16T08:08:39.615Z,30.77
2018-12-16T08:11:11.332Z,39.53
2018-12-16T08:13:42.344Z,35.40
2018-12-16T08:16:15.834Z,28.70
2018-12-16T08:18:47.295Z,35.83
2018-12-16T08:21:18.775Z,33.43
2018-12-16T08:23:49.765Z,33.37
2018-12-16T08:26:20.947Z,43.03
2018-12-16T08:28:54.743Z,37.63
2018-12-16T08:31:25.637Z,37.10
2018-12-16T08:33:59.634Z,35.97
2018-12-16T08:36:30.738Z,33.17
2018-12-16T08:39:06.115Z,34.73
2018-12-16T08:41:37.922Z,29.53
2018-12-16T08:44:09.797Z,34.73
2018-12-16T08:46:41.774Z,31.83
2018-12-16T08:49:12.938Z,31.10
2018-12-16T08:51:43.945Z,39.80
2018-12-16T08:54:17.558Z,35.30
2018-12-16T08:56:49.069Z,35.20
2018-12-16T08:59:20.076Z,39.07
2018-12-16T09:01:51.190Z,36.13
2018-12-16T09:04:24.998Z,39.00
2018-12-16T09:06:58.747Z,38.47
2018-12-16T09:09:30.811Z,32.53
2018-12-16T09:12:02.069Z,37.03
2018-12-16T09:14:33.079Z,33.43
2018-12-16T09:17:04.234Z,36.00
2018-12-16T09:19:35.216Z,38.20
2018-12-16T09:22:05.996Z,36.47
2018-12-16T09:24:39.483Z,33.77
2018-12-16T09:27:10.822Z,33.07
2018-12-16T09:29:42.950Z,33.97
2018-12-16T09:32:14.579Z,31.70
2018-12-16T09:34:45.509Z,34.13
2018-12-16T09:37:16.684Z,31.93
2018-12-16T09:39:48.220Z,36.77
2018-12-16T09:42:19.380Z,35.37
2018-12-16T09:44:50.620Z,34.40
2018-12-16T09:47:24.559Z,38.47
2018-12-16T09:49:55.767Z,35.17
2018-12-16T09:52:26.564Z,37.60
2018-12-16T09:54:57.562Z,41.23
2018-12-16T09:57:31.163Z,41.13
2018-12-16T10:00:03.480Z,31.97
2018-12-16T10:02:32.719Z,31.00
2018-12-16T10:05:04.305Z,32.30
2018-12-16T10:07:35.740Z,39.73
2018-12-16T10:10:09.947Z,36.97
2018-12-16T10:12:41.707Z,34.20
2018-12-16T10:15:12.707Z,36.50
2018-12-16T10:17:43.744Z,37.77
2018-12-16T10:20:14.687Z,33.10
2018-12-16T10:22:45.514Z,40.00
2018-12-16T10:25:16.503Z,35.67
2018-12-16T10:27:47.676Z,37.87
2018-12-16T10:30:21.294Z,40.60
2018-12-16T10:35:44.832Z,38.80
2018-12-16T10:38:16.203Z,35.40
2018-12-16T10:40:47.183Z,35.63
2018-12-16T10:43:18.203Z,39.83
2018-12-16T10:45:49.325Z,36.13
2018-12-16T10:48:21.147Z,37.77
2018-12-16T10:50:52.149Z,37.10
2018-12-16T10:53:26.455Z,40.80
2018-12-16T10:55:57.879Z,35.93
2018-12-16T10:58:28.825Z,40.03
2018-12-16T11:01:05.240Z,37.03
2018-12-16T11:03:36.662Z,35.07
2018-12-16T11:06:07.839Z,37.43
2018-12-16T11:08:39.299Z,38.43
2018-12-16T11:11:10.559Z,39.67
2018-12-16T11:13:41.803Z,39.13
2018-12-16T11:16:12.802Z,33.27
2018-12-16T11:18:43.933Z,41.80
2018-12-16T11:21:14.992Z,34.43
2018-12-16T11:23:45.908Z,44.67
2018-12-16T11:26:17.792Z,47.30
2018-12-16T11:28:48.899Z,42.00
2018-12-16T11:31:19.871Z,36.67
2018-12-16T11:33:51.519Z,34.73
2018-12-16T11:36:22.523Z,39.10
2018-12-16T11:38:54.313Z,44.50
2018-12-16T11:41:25.223Z,46.20
2018-12-16T11:43:56.292Z,45.47
2018-12-16T11:46:27.062Z,47.47
2018-12-16T11:48:57.943Z,42.90
2018-12-16T11:51:27.437Z,40.57
2018-12-16T11:53:59.163Z,40.57
2018-12-16T11:56:31.051Z,38.80
2018-12-16T11:59:01.937Z,40.60
2018-12-16T12:01:35.683Z,43.83
2018-12-16T12:04:06.919Z,36.40
2018-12-16T12:06:38.083Z,43.80
2018-12-16T12:09:09.279Z,42.77
2018-12-16T12:11:41.021Z,38.30
2018-12-16T12:14:11.992Z,41.60
2018-12-16T12:16:45.444Z,42.17
2018-12-16T12:19:16.572Z,44.00
2018-12-16T12:21:47.813Z,38.50
2018-12-16T12:24:18.803Z,39.57
2018-12-16T12:26:49.925Z,35.07
2018-12-16T12:29:21.490Z,42.03
2018-12-16T12:31:52.548Z,42.40
2018-12-16T12:34:23.663Z,43.23
2018-12-16T12:36:57.123Z,40.10
2018-12-16T12:39:30.819Z,45.80
2018-12-16T12:42:02.072Z,45.47
2018-12-16T12:44:33.399Z,40.63
2018-12-16T12:47:04.499Z,39.50
2018-12-16T12:49:35.287Z,41.70
2018-12-16T12:52:06.419Z,39.80
2018-12-16T12:54:37.663Z,37.87
2018-12-16T12:57:09.442Z,37.20
2018-12-16T12:59:40.810Z,42.43
2018-12-16T13:02:11.878Z,45.03
2018-12-16T13:04:45.327Z,43.70
2018-12-16T13:07:16.784Z,37.03
2018-12-16T13:09:47.600Z,44.20
2018-12-16T13:12:18.796Z,41.37
2018-12-16T13:14:49.844Z,40.27
2018-12-16T13:17:24.314Z,36.67
2018-12-16T13:19:55.973Z,38.00
2018-12-16T13:22:29.774Z,32.97
2018-12-16T13:25:19.575Z,38.43
2018-12-16T13:27:51.411Z,34.90
2018-12-16T13:30:22.534Z,35.97
2018-12-16T13:32:53.416Z,36.03
2018-12-16T13:37:56.415Z,35.70
2018-12-16T13:40:27.463Z,42.67
2018-12-16T13:42:59.379Z,38.83
2018-12-16T13:45:30.527Z,44.37
2018-12-16T13:48:03.946Z,42.33
2018-12-16T13:50:37.783Z,39.30
2018-12-16T13:53:12.881Z,47.33
2018-12-16T13:58:46.181Z,43.30
2018-12-16T14:01:17.003Z,40.83
2018-12-16T14:03:47.879Z,41.30
2018-12-16T14:06:18.708Z,43.03
2018-12-16T14:08:52.233Z,40.40
2018-12-16T14:11:24.158Z,41.87
2018-12-16T14:13:58.147Z,47.17
2018-12-16T14:16:29.680Z,42.43
2018-12-16T14:19:00.919Z,36.33
2018-12-16T14:21:32.168Z,40.57
2018-12-16T14:24:04.033Z,38.57
2018-12-16T14:26:39.769Z,54.90
2018-12-16T14:29:10.968Z,44.87
2018-12-16T14:31:44.482Z,44.30
2018-12-16T14:34:15.983Z,39.30
2018-12-16T14:41:51.417Z,40.70
2018-12-16T14:44:22.245Z,39.87
2018-12-16T14:46:53.366Z,39.80
2018-12-16T14:49:24.419Z,39.93
2018-12-16T14:51:55.286Z,43.07
2018-12-16T14:54:27.005Z,36.63
2018-12-16T14:57:00.879Z,38.00
2018-12-16T14:59:32.252Z,36.90
2018-12-16T15:02:03.445Z,38.70
2018-12-16T15:04:35.259Z,34.83
2018-12-16T15:07:06.731Z,34.40
2018-12-16T15:09:37.983Z,40.83
2018-12-16T15:12:09.247Z,45.00
2018-12-16T15:14:40.192Z,44.37
2018-12-16T15:17:13.725Z,42.37
2018-12-16T15:19:47.762Z,41.93
2018-12-16T15:22:19.299Z,41.67
2018-12-16T15:24:53.543Z,39.53
2018-12-16T15:27:24.867Z,39.97
2018-12-16T15:30:01.569Z,44.10
2018-12-16T15:32:36.373Z,43.53
2018-12-16T15:35:07.835Z,47.23
2018-12-16T15:37:38.743Z,44.83
2018-12-16T15:40:11.984Z,39.80
2018-12-16T15:45:23.007Z,44.40
2018-12-16T15:47:54.667Z,40.20
2018-12-16T15:50:26.417Z,51.30
2018-12-16T15:52:57.809Z,42.13
2018-12-16T15:55:29.486Z,46.00
2018-12-16T15:58:03.168Z,45.30
2018-12-16T16:00:34.395Z,45.63
2018-12-16T16:03:05.474Z,41.63
2018-12-16T16:05:40.082Z,47.17
2018-12-16T16:08:16.469Z,46.20
2018-12-16T16:10:43.975Z,39.63
2018-12-16T16:13:15.925Z,38.30
2018-12-16T16:15:49.369Z,42.40
2018-12-16T16:18:20.783Z,42.57
2018-12-16T16:20:54.520Z,47.63
2018-12-16T16:23:29.369Z,46.57
2018-12-16T16:26:04.463Z,44.93
2018-12-16T16:28:38.567Z,51.37
2018-12-16T16:31:12.385Z,46.80
2018-12-16T16:33:43.708Z,45.77
2018-12-16T16:36:15.063Z,48.37
2018-12-16T16:38:48.741Z,46.07
2018-12-16T16:41:20.014Z,47.73
2018-12-16T16:43:53.686Z,47.27
2018-12-16T16:46:25.073Z,44.50
2018-12-16T16:48:55.937Z,46.00
2018-12-16T16:51:26.846Z,46.37
2018-12-16T16:53:57.971Z,54.27
2018-12-16T16:56:29.315Z,41.93
2018-12-16T16:59:00.170Z,45.30
2018-12-16T17:01:31.235Z,42.03
2018-12-16T17:04:02.571Z,42.37
2018-12-16T17:06:34.232Z,47.37
2018-12-16T17:09:07.470Z,47.43
2018-12-16T17:11:38.520Z,38.23
2018-12-16T17:14:08.418Z,48.63
2018-12-16T17:16:40.579Z,47.00
2018-12-16T17:19:15.336Z,42.87
2018-12-16T17:21:46.670Z,50.87
2018-12-16T17:24:18.622Z,50.83
2018-12-16T17:26:50.269Z,38.80
2018-12-16T17:29:21.256Z,47.83
2018-12-16T17:31:52.807Z,39.73
2018-12-16T17:34:26.336Z,47.03
2018-12-16T17:36:57.707Z,47.00
2018-12-16T17:39:28.797Z,49.80
2018-12-16T17:42:02.462Z,49.83
2018-12-16T17:44:36.785Z,50.33
2018-12-16T17:47:08.536Z,57.00
2018-12-16T17:49:39.455Z,55.13
2018-12-16T17:52:10.874Z,54.47
2018-12-16T17:54:44.812Z,50.90
2018-12-16T17:57:16.208Z,48.70
2018-12-16T17:59:48.038Z,50.00
2018-12-16T18:02:18.957Z,51.27
2018-12-16T18:04:49.760Z,51.33
2018-12-16T18:07:20.963Z,54.40
2018-12-16T18:09:52.703Z,52.37
2018-12-16T18:12:23.518Z,58.73
2018-12-16T18:14:57.894Z,57.47
2018-12-16T18:17:29.259Z,53.83
2018-12-16T18:20:00.707Z,59.77
2018-12-16T18:22:31.621Z,67.77
2018-12-16T18:25:03.123Z,63.33
2018-12-16T18:27:34.627Z,60.37
2018-12-16T18:30:08.604Z,57.97
2018-12-16T18:32:39.647Z,59.20
2018-12-16T18:35:11.292Z,64.00
2018-12-16T18:37:42.587Z,64.83
2018-12-16T18:40:14.426Z,67.40
2018-12-16T18:42:48.008Z,71.43
2018-12-16T18:45:22.010Z,65.53
2018-12-16T18:47:53.287Z,72.80
2018-12-16T18:50:26.803Z,66.40
2018-12-16T18:52:58.307Z,67.57
2018-12-16T18:55:29.521Z,83.30
2018-12-16T18:58:00.335Z,98.70
2018-12-16T19:00:34.052Z,73.00
2018-12-16T19:03:05.403Z,68.53
2018-12-16T19:05:36.303Z,68.07
2018-12-16T19:08:07.535Z,63.67
2018-12-16T19:10:38.537Z,71.13
2018-12-16T19:13:09.628Z,66.63
2018-12-16T19:15:40.691Z,63.93
2018-12-16T19:18:11.458Z,63.20
2018-12-16T19:20:45.008Z,68.53
2018-12-16T19:23:16.463Z,80.30
2018-12-16T19:25:47.537Z,71.30
2018-12-16T19:28:19.242Z,74.07
2018-12-16T19:30:50.565Z,73.03
2018-12-16T19:33:21.667Z,77.77
2018-12-16T19:35:55.187Z,69.40
2018-12-16T19:38:26.543Z,71.67
2018-12-16T19:40:57.531Z,59.73
2018-12-16T19:43:30.674Z,66.00
2018-12-16T19:46:01.704Z,77.20
2018-12-16T19:48:32.792Z,75.63
2018-12-16T19:51:04.139Z,78.53
2018-12-16T19:53:33.824Z,71.47
2018-12-16T19:56:04.827Z,58.13
2018-12-16T19:58:36.518Z,63.77
2018-12-16T20:01:07.363Z,72.13
2018-12-16T20:03:43.014Z,61.50
2018-12-16T20:06:19.724Z,72.47
2018-12-16T20:08:50.827Z,59.97
2018-12-16T20:11:22.127Z,71.00
2018-12-16T20:13:55.522Z,69.60
2018-12-16T20:16:29.378Z,72.40
2018-12-16T20:19:00.913Z,64.80
2018-12-16T20:21:31.861Z,71.40
2018-12-16T20:24:03.279Z,77.20
2018-12-16T20:26:37.480Z,74.30
2018-12-16T20:29:09.011Z,83.50
2018-12-16T20:31:42.619Z,77.93
2018-12-16T20:34:14.234Z,74.67
2018-12-16T20:36:47.662Z,62.77
2018-12-16T20:39:19.052Z,65.17
2018-12-16T20:41:50.283Z,64.47
2018-12-16T20:44:21.032Z,72.43
2018-12-16T20:46:52.747Z,72.77
2018-12-16T20:49:24.127Z,71.87
2018-12-16T20:51:55.012Z,67.20
2018-12-16T20:54:26.039Z,78.23
2018-12-16T20:56:57.127Z,69.63
2018-12-16T20:59:28.196Z,81.83
2018-12-16T21:01:59.187Z,75.33
2018-12-16T21:04:30.770Z,72.70
2018-12-16T21:07:02.055Z,75.63
2018-12-16T21:09:35.733Z,74.83
2018-12-16T21:12:11.850Z,90.53
2018-12-16T21:14:48.236Z,72.40
2018-12-16T21:17:25.416Z,88.37
2018-12-16T21:19:59.244Z,86.40
2018-12-16T21:22:31.050Z,80.77
2018-12-16T21:25:02.046Z,93.73
2018-12-16T21:27:35.663Z,89.77
2018-12-16T21:30:07.306Z,82.23
2018-12-16T21:32:39.195Z,78.43
2018-12-16T21:35:10.089Z,85.97
2018-12-16T21:37:43.322Z,76.57
2018-12-16T21:40:17.528Z,110.63
2018-12-16T21:42:48.866Z,117.93
2018-12-16T21:45:19.902Z,83.10
2018-12-16T21:47:53.195Z,106.10
2018-12-16T21:50:24.736Z,77.07
2018-12-16T21:52:55.899Z,96.00
2018-12-16T21:55:29.312Z,102.97
2018-12-16T21:58:03.260Z,93.30
2018-12-16T22:00:34.686Z,65.53
2018-12-16T22:03:05.527Z,95.73
2018-12-16T22:05:36.571Z,88.00
2018-12-16T22:08:07.443Z,97.70
2018-12-16T22:10:38.407Z,92.40
2018-12-16T22:13:09.491Z,90.97
2018-12-16T22:15:38.861Z,92.73
2018-12-16T22:18:10.527Z,88.57
2018-12-16T22:20:41.316Z,94.97
2018-12-16T22:23:12.459Z,89.93
2018-12-16T22:25:43.590Z,76.70
2018-12-16T22:28:17.275Z,93.73
2018-12-16T22:30:46.911Z,108.57
2018-12-16T22:33:20.567Z,77.80
2018-12-16T22:35:51.971Z,90.93
2018-12-16T22:38:25.319Z,93.90
2018-12-16T22:40:56.691Z,71.17
2018-12-16T22:43:27.693Z,85.73
2018-12-16T22:45:59.360Z,77.53
2018-12-16T22:48:31.384Z,89.60
2018-12-16T22:51:03.339Z,92.43
2018-12-16T22:53:34.217Z,99.73
2018-12-16T22:56:05.897Z,98.93
2018-12-16T22:58:37.021Z,90.83
2018-12-16T23:01:14.159Z,68.77
2018-12-16T23:03:47.686Z,77.10
2018-12-16T23:06:19.333Z,89.23
2018-12-16T23:08:50.275Z,88.07
2018-12-16T23:11:21.246Z,96.27
2018-12-16T23:13:56.827Z,90.87
2018-12-16T23:16:28.295Z,88.63
2018-12-16T23:18:59.083Z,73.97
2018-12-16T23:21:30.326Z,86.63
2018-12-16T23:24:01.360Z,92.83
2018-12-16T23:26:32.220Z,98.47
2018-12-16T23:29:03.543Z,99.70
2018-12-16T23:34:38.518Z,95.67
2018-12-16T23:37:09.690Z,101.90
2018-12-16T23:39:40.553Z,101.40
2018-12-16T23:42:11.463Z,84.37
2018-12-16T23:44:40.886Z,96.33
2018-12-16T23:47:11.835Z,91.10
2018-12-16T23:49:42.830Z,98.33
2018-12-16T23:52:14.091Z,105.33
2018-12-16T23:54:45.617Z,98.47
2018-12-16T23:57:16.387Z,111.27
2018-12-16T23:59:48.147Z,109.53
